Strona główna
METAR-TAF:

METAR-TAF

Lotnisko :

Platforma wiertnicza

P11-b, Holandia

Szerokość geograficzna: 52-21-36N, Długość geograficzna: 3-20-30E, wysokość: 24 m

Aktualna obserwacja pogody

Raport powstał 38 minut temu, godzina 04:55 UTC
Wiatr 14 kt od wschodnio-północny wschód
Temperatura 13°C
Wilgotność 72%
Ciśnienie 1036 hPa
Widzialność 10 km lub więcej

METAR: EHPG 280455Z AUTO 07014KT 9999 NCD 13/08 Q1036

czas: 07:33 (05:33 UTC)


TAF: brakujący

Obserwacja i prognoza pogody dla ponad 4000 lotnisk (raport METAR i TAF).

Dostępne stacje oznaczono żółtymi i czerwonymi punktami na mapie.

Najedź kursorem aby zobaczyć nazwę stacji.

Kliknij aby zobaczyć obserwacje i prognozy pogody.

Aby zmienić mapę: kliknij na zielony przycisk z czarnym krzyżykiem, aby powiększyć; na zielony przycisk z myślnikiem, aby pomniejszyć; na zielone strzałki, aby przejść do map sąsiednich.


METAR-TAF: